Time;durP1;ratioP1;P1;durP2;ratioP2;P2;SDS_P1;SDS_P2;PMS_P1;PMS_P2;Temp;Humidity;BMP_temperature;BMP_pressure;BME280_temperature;BME280_humidity;BME280_pressure;Samples;Min_cycle;Max_cycle;Signal;HPM_P1;HPM_P2
2021/04/03 00:00:11;;;;;;;21.97;6.77;;;5.00;99.90;;;;;;4913082;29;20256;-61
2021/04/03 00:02:38;;;;;;;31.43;6.93;;;5.00;99.90;;;;;;4918501;29;20220;-61
2021/04/03 00:05:08;;;;;;;21.03;6.67;;;5.00;99.90;;;;;;4923992;29;20664;-61
2021/04/03 00:07:35;;;;;;;18.17;6.27;;;5.00;99.90;;;;;;4913300;29;20308;-61
2021/04/03 00:10:05;;;;;;;26.87;6.70;;;5.10;99.90;;;;;;4911960;29;20201;-61
2021/04/03 00:12:33;;;;;;;22.37;6.57;;;5.20;99.90;;;;;;4912109;29;20663;-61
2021/04/03 00:15:00;;;;;;;22.27;7.20;;;5.20;99.90;;;;;;4911917;29;20201;-61
2021/04/03 00:17:28;;;;;;;21.03;6.87;;;5.30;99.90;;;;;;4913164;29;20538;-61
2021/04/03 00:19:56;;;;;;;20.53;7.33;;;5.30;99.90;;;;;;4912269;29;20744;-61
2021/04/03 00:22:23;;;;;;;23.93;6.53;;;5.40;99.90;;;;;;4911679;29;20206;-61
2021/04/03 00:24:51;;;;;;;22.53;6.57;;;5.40;99.90;;;;;;4914438;29;20663;-61
2021/04/03 00:27:18;;;;;;;21.13;6.83;;;5.40;99.90;;;;;;4915654;29;20221;-61
2021/04/03 00:29:46;;;;;;;22.87;7.00;;;5.40;99.90;;;;;;4920346;29;20241;-61
2021/04/03 00:32:13;;;;;;;20.30;6.83;;;5.40;99.90;;;;;;4917261;29;20297;-61
2021/04/03 00:34:41;;;;;;;20.23;6.73;;;5.30;99.90;;;;;;4909508;29;20284;-61
2021/04/03 00:37:08;;;;;;;26.63;7.30;;;5.30;99.90;;;;;;4914581;29;20198;-61
2021/04/03 00:39:36;;;;;;;28.17;6.90;;;5.10;99.90;;;;;;4913036;29;20728;-61
2021/04/03 00:42:13;;;;;;;23.33;6.90;;;5.10;99.90;;;;;;4915161;29;20201;-61
2021/04/03 00:44:45;;;;;;;18.07;6.73;;;5.00;99.90;;;;;;4915698;29;20235;-61
2021/04/03 00:47:12;;;;;;;22.87;6.80;;;4.90;99.90;;;;;;4915350;29;20257;-61
2021/04/03 00:49:41;;;;;;;19.03;6.43;;;4.80;99.90;;;;;;4914115;29;20636;-61
2021/04/03 00:52:09;;;;;;;23.03;6.90;;;4.80;99.90;;;;;;4914295;29;20232;-61
2021/04/03 00:54:39;;;;;;;18.80;6.73;;;4.80;99.90;;;;;;4915826;29;20597;-61
2021/04/03 00:57:07;;;;;;;19.77;6.63;;;4.90;99.90;;;;;;4914778;29;20711;-61
2021/04/03 00:59:34;;;;;;;22.13;6.30;;;5.00;99.90;;;;;;4915291;29;20197;-61
2021/04/03 01:02:02;;;;;;;22.17;6.73;;;5.10;99.90;;;;;;4911738;29;20737;-61
2021/04/03 01:04:29;;;;;;;20.00;6.70;;;5.10;99.90;;;;;;4918711;29;20300;-61
2021/04/03 01:06:58;;;;;;;22.90;6.13;;;5.20;99.90;;;;;;4931718;29;20205;-61
2021/04/03 01:09:25;;;;;;;24.23;7.23;;;5.30;99.90;;;;;;4914455;29;20201;-60
2021/04/03 01:12:02;;;;;;;21.50;7.17;;;5.40;99.90;;;;;;4918521;29;20216;-62
2021/04/03 01:14:35;;;;;;;16.77;6.70;;;5.50;99.90;;;;;;4919451;29;20201;-61
2021/04/03 01:17:10;;;;;;;17.87;7.37;;;5.60;99.90;;;;;;4921502;29;20200;-61
2021/04/03 01:20:12;;;;;;;23.17;6.80;;;5.60;99.90;;;;;;4932939;29;20251;-61
2021/04/03 01:23:14;;;;;;;25.33;7.47;;;5.70;99.90;;;;;;4914010;29;20224;-61
2021/04/03 01:25:55;;;;;;;21.83;6.63;;;5.70;99.90;;;;;;4906681;29;20209;-61
2021/04/03 01:28:43;;;;;;;21.13;6.80;;;5.70;99.90;;;;;;4922045;29;20221;-61
2021/04/03 01:31:12;;;;;;;22.43;6.90;;;5.80;99.90;;;;;;4917757;29;20256;-61
2021/04/03 01:33:45;;;;;;;17.70;6.80;;;5.80;99.90;;;;;;4933027;29;20220;-61
2021/04/03 01:36:16;;;;;;;23.93;6.80;;;5.80;99.90;;;;;;4923222;29;20900;-61
2021/04/03 01:38:46;;;;;;;17.30;6.30;;;5.80;99.90;;;;;;4915650;29;20197;-61
2021/04/03 01:41:15;;;;;;;24.43;7.20;;;5.90;99.90;;;;;;4911858;29;20569;-61
2021/04/03 01:43:47;;;;;;;25.90;6.80;;;5.90;99.90;;;;;;4914058;29;20190;-61
2021/04/03 01:46:16;;;;;;;21.60;6.93;;;5.90;99.90;;;;;;4914652;29;20226;-61
2021/04/03 01:48:45;;;;;;;21.50;6.50;;;5.90;99.90;;;;;;4917233;29;20201;-61
2021/04/03 01:51:14;;;;;;;18.40;6.87;;;5.90;99.90;;;;;;4919384;29;20807;-61
2021/04/03 01:53:43;;;;;;;24.50;6.53;;;5.90;99.90;;;;;;4920351;29;20285;-61
2021/04/03 01:56:12;;;;;;;25.20;6.13;;;5.90;99.90;;;;;;4915208;29;20217;-61
2021/04/03 01:58:40;;;;;;;18.30;5.83;;;5.90;99.90;;;;;;4914984;29;20296;-61
2021/04/03 02:01:10;;;;;;;21.33;6.03;;;5.90;99.90;;;;;;4914426;29;20208;-61
2021/04/03 02:03:38;;;;;;;24.90;6.00;;;5.90;99.90;;;;;;4919518;29;20261;-61
2021/04/03 02:06:07;;;;;;;20.90;5.50;;;5.90;99.90;;;;;;4918206;29;20201;-61
2021/04/03 02:08:36;;;;;;;21.47;5.83;;;5.90;99.90;;;;;;4923298;29;20695;-61
2021/04/03 02:11:05;;;;;;;21.53;5.43;;;5.90;99.90;;;;;;4919427;29;20294;-61
2021/04/03 02:13:34;;;;;;;21.80;6.40;;;6.00;99.90;;;;;;4914482;29;20284;-61
2021/04/03 02:16:05;;;;;;;25.90;5.20;;;6.00;99.90;;;;;;4919754;29;20231;-61
2021/04/03 02:18:35;;;;;;;27.47;5.47;;;5.90;99.90;;;;;;4914468;29;20202;-61
2021/04/03 02:21:05;;;;;;;25.57;5.67;;;6.00;99.90;;;;;;4914366;29;20292;-61
2021/04/03 02:23:32;;;;;;;16.30;5.87;;;6.00;99.90;;;;;;4914836;29;20204;-61
2021/04/03 02:26:01;;;;;;;17.20;5.17;;;6.00;99.90;;;;;;4913951;29;20238;-61
2021/04/03 02:28:29;;;;;;;20.03;5.07;;;6.00;99.90;;;;;;4921734;29;20268;-61
2021/04/03 02:30:57;;;;;;;19.90;5.10;;;6.00;99.90;;;;;;4913901;29;20289;-61
2021/04/03 02:33:24;;;;;;;21.50;5.07;;;6.10;99.90;;;;;;4916722;29;20202;-61
2021/04/03 02:35:52;;;;;;;25.23;5.63;;;6.10;99.90;;;;;;4910595;29;20198;-61
2021/04/03 02:38:20;;;;;;;23.63;5.23;;;6.00;99.90;;;;;;4921512;29;20192;-61
2021/04/03 02:40:48;;;;;;;24.00;5.60;;;6.00;99.90;;;;;;4917904;29;20225;-61
2021/04/03 02:43:23;;;;;;;22.70;5.70;;;6.10;99.90;;;;;;4919522;29;20279;-61
2021/04/03 02:45:56;;;;;;;16.93;4.87;;;6.10;99.90;;;;;;4914153;29;20695;-61
2021/04/03 02:48:29;;;;;;;19.27;4.80;;;6.00;99.90;;;;;;4913816;29;20271;-61
2021/04/03 02:51:00;;;;;;;20.90;4.70;;;6.10;99.90;;;;;;4921657;29;20223;-61
2021/04/03 02:53:31;;;;;;;20.30;4.10;;;6.00;99.90;;;;;;4926290;29;20679;-60
2021/04/03 02:56:01;;;;;;;10.67;3.80;;;6.10;99.90;;;;;;4919490;29;20591;-61
2021/04/03 02:58:32;;;;;;;21.93;4.27;;;6.10;99.90;;;;;;4912497;29;20538;-61
2021/04/03 03:01:00;;;;;;;14.80;3.80;;;6.10;99.90;;;;;;4913182;29;20253;-61
2021/04/03 03:03:32;;;;;;;17.00;3.87;;;6.10;99.90;;;;;;4917940;29;20201;-60
2021/04/03 03:06:01;;;;;;;15.80;3.40;;;6.10;99.90;;;;;;4925881;29;20193;-61
2021/04/03 03:08:30;;;;;;;11.00;3.23;;;6.10;99.90;;;;;;4914515;29;20793;-61
2021/04/03 03:10:58;;;;;;;15.77;3.33;;;6.10;99.90;;;;;;4917142;29;20296;-61
2021/04/03 03:13:26;;;;;;;15.43;3.50;;;6.10;99.90;;;;;;4894092;29;20872;-61
2021/04/03 03:15:55;;;;;;;16.77;3.67;;;6.10;99.90;;;;;;4918487;29;20193;-61
2021/04/03 03:18:23;;;;;;;13.23;3.73;;;6.10;99.90;;;;;;4913587;29;20197;-61
2021/04/03 03:20:51;;;;;;;21.33;3.70;;;6.10;99.90;;;;;;4914768;29;20194;-61
2021/04/03 03:23:19;;;;;;;16.07;3.83;;;6.10;99.90;;;;;;4919960;29;20232;-61
2021/04/03 03:25:47;;;;;;;9.63;3.47;;;6.10;99.90;;;;;;4913162;29;20269;-61
2021/04/03 03:28:15;;;;;;;9.07;3.30;;;6.00;99.90;;;;;;4917626;29;20311;-61
2021/04/03 03:30:42;;;;;;;16.23;4.07;;;6.00;99.90;;;;;;4912680;29;20300;-61
2021/04/03 03:33:10;;;;;;;16.83;3.87;;;6.10;99.90;;;;;;4914295;29;20233;-61
2021/04/03 03:35:37;;;;;;;12.13;3.73;;;6.10;99.90;;;;;;4918198;29;20626;-59
2021/04/03 03:38:05;;;;;;;14.63;4.90;;;6.10;99.90;;;;;;4915319;29;20220;-61
2021/04/03 03:40:33;;;;;;;18.57;4.87;;;6.10;99.90;;;;;;4913477;29;20193;-61
2021/04/03 03:43:02;;;;;;;15.40;4.33;;;6.10;99.90;;;;;;4909406;29;20261;-61
2021/04/03 03:45:29;;;;;;;21.20;6.43;;;6.10;99.90;;;;;;4909017;29;20240;-61
2021/04/03 03:47:57;;;;;;;13.90;4.90;;;6.10;99.90;;;;;;4919262;29;20213;-61
2021/04/03 03:50:24;;;;;;;17.50;5.10;;;6.10;99.90;;;;;;4926580;29;20285;-60
2021/04/03 03:52:51;;;;;;;19.07;5.33;;;6.20;99.90;;;;;;4911842;29;20256;-61
2021/04/03 03:55:19;;;;;;;17.43;5.53;;;6.10;99.90;;;;;;4912836;29;20190;-62
2021/04/03 03:57:46;;;;;;;20.17;5.20;;;6.10;99.90;;;;;;4912494;29;20641;-61
2021/04/03 04:00:16;;;;;;;21.93;5.00;;;6.20;99.90;;;;;;4929073;29;20246;-61
2021/04/03 04:02:43;;;;;;;14.87;5.13;;;6.10;99.90;;;;;;4917075;29;20253;-61
2021/04/03 04:05:12;;;;;;;15.33;4.93;;;6.10;99.90;;;;;;4927618;29;20211;-61
2021/04/03 04:07:39;;;;;;;25.30;5.80;;;6.10;99.90;;;;;;4918121;29;20240;-61
2021/04/03 04:10:08;;;;;;;18.33;4.80;;;6.10;99.90;;;;;;4932292;29;20204;-61
2021/04/03 04:12:35;;;;;;;18.57;4.97;;;6.00;99.90;;;;;;4914457;29;20205;-61
2021/04/03 04:15:04;;;;;;;11.30;4.57;;;6.00;99.90;;;;;;4920791;29;20197;-61
2021/04/03 04:17:32;;;;;;;19.10;5.20;;;6.10;99.90;;;;;;4912238;29;20225;-61
2021/04/03 04:19:59;;;;;;;20.30;4.90;;;6.10;99.90;;;;;;4927433;29;21032;-61
2021/04/03 04:22:26;;;;;;;16.60;4.60;;;6.10;99.90;;;;;;4917524;29;20232;-61
2021/04/03 04:24:53;;;;;;;15.13;4.50;;;6.10;99.90;;;;;;4927337;29;20260;-61
2021/04/03 04:27:21;;;;;;;22.53;5.07;;;6.10;99.90;;;;;;4922271;29;20216;-61
2021/04/03 04:29:49;;;;;;;19.70;5.03;;;6.10;99.90;;;;;;4924523;29;20323;-61
2021/04/03 04:32:17;;;;;;;27.17;5.33;;;6.10;99.90;;;;;;4916477;29;20240;-61
2021/04/03 04:34:45;;;;;;;16.50;5.00;;;6.10;99.90;;;;;;4931525;29;20193;-61
2021/04/03 04:37:12;;;;;;;21.13;4.23;;;6.10;99.90;;;;;;4914855;29;20796;-61
2021/04/03 04:39:39;;;;;;;27.30;5.40;;;6.10;99.90;;;;;;4914595;29;20228;-61
2021/04/03 04:42:07;;;;;;;17.63;4.10;;;6.20;99.90;;;;;;4919378;29;20292;-61
2021/04/03 04:44:34;;;;;;;24.87;4.77;;;6.10;99.90;;;;;;4918639;29;20829;-61
2021/04/03 04:47:02;;;;;;;17.37;4.90;;;6.20;99.90;;;;;;4921834;29;20197;-61
2021/04/03 04:49:29;;;;;;;15.43;4.73;;;6.20;99.90;;;;;;4910457;29;20303;-61
2021/04/03 04:51:57;;;;;;;18.70;5.40;;;6.20;99.90;;;;;;4920805;29;20221;-61
2021/04/03 04:54:24;;;;;;;24.30;5.30;;;6.10;99.90;;;;;;4928307;29;20249;-61
2021/04/03 04:56:52;;;;;;;20.00;5.13;;;6.20;99.90;;;;;;4909881;29;20301;-61
2021/04/03 04:59:19;;;;;;;24.37;5.47;;;6.20;99.90;;;;;;4911176;29;20535;-61
2021/04/03 05:01:46;;;;;;;28.10;5.77;;;6.20;99.90;;;;;;4909667;29;20654;-61
2021/04/03 05:04:13;;;;;;;17.10;5.07;;;6.20;99.90;;;;;;4912361;29;20197;-61
2021/04/03 05:06:41;;;;;;;17.57;5.00;;;6.20;99.90;;;;;;4908304;29;20614;-60
2021/04/03 05:09:10;;;;;;;22.83;5.53;;;6.20;99.90;;;;;;4917911;29;20244;-61
2021/04/03 05:11:38;;;;;;;27.63;5.73;;;6.20;99.90;;;;;;4909816;29;20210;-61
2021/04/03 05:14:06;;;;;;;28.97;6.00;;;6.20;99.90;;;;;;4908620;29;20288;-61
2021/04/03 05:16:33;;;;;;;17.57;4.90;;;6.20;99.90;;;;;;4911179;29;20201;-61
2021/04/03 05:19:00;;;;;;;24.80;4.73;;;6.20;99.90;;;;;;4913694;29;20193;-61
2021/04/03 05:21:27;;;;;;;19.33;4.70;;;6.20;99.90;;;;;;4911275;29;20205;-61
2021/04/03 05:23:55;;;;;;;18.50;4.90;;;6.20;99.90;;;;;;4914765;29;20217;-61
2021/04/03 05:26:23;;;;;;;17.50;4.50;;;6.20;99.90;;;;;;4918885;29;20668;-61
2021/04/03 05:28:50;;;;;;;16.50;4.70;;;6.20;99.90;;;;;;4921148;29;20219;-61
2021/04/03 05:31:20;;;;;;;21.17;4.80;;;6.30;99.90;;;;;;4910335;29;20724;-61
2021/04/03 05:33:48;;;;;;;17.43;5.97;;;6.30;99.90;;;;;;4907451;29;20931;-61
2021/04/03 05:36:16;;;;;;;23.37;5.13;;;6.30;99.90;;;;;;4926848;29;20201;-61
2021/04/03 05:38:43;;;;;;;32.13;5.77;;;6.30;99.90;;;;;;4920221;29;20221;-61
2021/04/03 05:41:11;;;;;;;17.27;5.03;;;6.30;99.90;;;;;;4914683;29;20249;-61
2021/04/03 05:43:40;;;;;;;24.90;5.70;;;6.30;99.90;;;;;;4922079;29;20629;-61
2021/04/03 05:46:07;;;;;;;29.87;5.90;;;6.30;99.90;;;;;;4911754;29;20290;-61
2021/04/03 05:48:35;;;;;;;23.37;5.30;;;6.30;99.90;;;;;;4917195;29;20278;-60
2021/04/03 05:51:03;;;;;;;24.23;5.37;;;6.30;99.90;;;;;;4918726;29;20201;-61
2021/04/03 05:53:31;;;;;;;21.30;5.60;;;6.30;99.90;;;;;;4911174;29;20209;-61
2021/04/03 05:56:00;;;;;;;16.33;4.67;;;6.30;99.90;;;;;;4925303;29;20185;-61
2021/04/03 05:58:27;;;;;;;19.00;4.60;;;6.30;99.90;;;;;;4913208;29;20204;-61
2021/04/03 06:00:56;;;;;;;11.97;4.53;;;6.30;99.90;;;;;;4920601;29;20661;-61
2021/04/03 06:03:23;;;;;;;21.60;4.73;;;6.40;99.90;;;;;;4917666;29;20669;-61
2021/04/03 06:05:51;;;;;;;19.00;4.83;;;6.40;99.90;;;;;;4913211;29;20253;-61
2021/04/03 06:08:19;;;;;;;21.97;4.47;;;6.30;99.90;;;;;;4913452;29;20209;-61
2021/04/03 06:11:11;;;;;;;12.50;4.13;;;6.30;99.90;;;;;;4912831;29;20200;-61
2021/04/03 06:13:39;;;;;;;29.20;4.90;;;6.30;99.90;;;;;;4911269;29;20225;-61
2021/04/03 06:16:29;;;;;;;18.47;4.20;;;6.40;99.90;;;;;;4910695;29;20205;-61
2021/04/03 06:19:11;;;;;;;17.40;4.60;;;6.40;99.90;;;;;;4921511;29;20333;-61
2021/04/03 06:21:39;;;;;;;23.73;4.67;;;6.40;99.90;;;;;;4910136;29;20189;-61
2021/04/03 06:24:22;;;;;;;19.13;4.53;;;6.40;99.90;;;;;;4908149;29;20205;-61
2021/04/03 06:27:01;;;;;;;21.50;4.17;;;6.50;99.90;;;;;;4908025;29;20201;-61
2021/04/03 06:29:31;;;;;;;15.37;4.20;;;6.50;99.90;;;;;;4903174;29;20328;-61
2021/04/03 06:32:00;;;;;;;13.93;4.20;;;6.50;99.90;;;;;;4912281;29;20296;-61
2021/04/03 06:34:32;;;;;;;14.93;4.73;;;6.50;99.90;;;;;;4908747;29;20210;-61
2021/04/03 06:37:01;;;;;;;19.70;4.77;;;6.50;99.90;;;;;;4910780;29;20257;-61
2021/04/03 06:39:29;;;;;;;15.00;4.30;;;6.60;99.90;;;;;;4910980;29;20221;-60
2021/04/03 06:41:57;;;;;;;30.70;4.40;;;6.60;99.90;;;;;;4914174;29;20259;-61
2021/04/03 06:44:25;;;;;;;18.40;4.33;;;6.60;99.90;;;;;;4905825;29;20288;-61
2021/04/03 06:46:53;;;;;;;21.93;4.97;;;6.70;99.90;;;;;;4912724;29;20193;-61
2021/04/03 06:49:22;;;;;;;18.67;4.17;;;6.80;99.90;;;;;;4912186;29;20214;-59
2021/04/03 06:51:51;;;;;;;16.47;4.20;;;6.90;99.90;;;;;;4915730;29;20322;-61
2021/04/03 06:54:19;;;;;;;19.63;4.57;;;6.90;99.90;;;;;;4920475;29;20240;-61
2021/04/03 06:56:48;;;;;;;14.23;3.80;;;7.00;99.90;;;;;;4931576;29;20208;-61
2021/04/03 06:59:17;;;;;;;14.87;3.83;;;7.10;99.90;;;;;;4921412;29;20732;-61
2021/04/03 07:01:50;;;;;;;22.07;5.00;;;7.10;99.90;;;;;;4920656;29;20664;-59
2021/04/03 07:04:28;;;;;;;23.93;4.23;;;7.20;99.90;;;;;;4920453;29;20198;-61
2021/04/03 07:06:56;;;;;;;19.10;4.53;;;7.20;99.90;;;;;;4903349;29;20224;-61
2021/04/03 07:09:24;;;;;;;14.90;3.83;;;7.40;99.90;;;;;;4926867;29;20252;-61
2021/04/03 07:11:53;;;;;;;18.80;4.00;;;7.40;99.90;;;;;;4915247;29;20197;-61
2021/04/03 07:14:22;;;;;;;22.23;4.00;;;7.50;99.90;;;;;;4928145;29;20280;-61
2021/04/03 07:16:50;;;;;;;19.77;4.13;;;7.60;99.90;;;;;;4927256;29;20260;-61
2021/04/03 07:19:21;;;;;;;19.43;4.20;;;7.60;99.90;;;;;;4933087;29;20220;-61
2021/04/03 07:21:49;;;;;;;14.50;4.93;;;7.70;99.90;;;;;;4911762;29;20205;-61
2021/04/03 07:24:19;;;;;;;16.30;4.23;;;7.80;99.90;;;;;;4913494;29;20202;-61
2021/04/03 07:26:48;;;;;;;16.80;4.10;;;7.80;99.90;;;;;;4906503;29;20683;-61
2021/04/03 07:29:43;;;;;;;22.80;4.40;;;7.90;99.90;;;;;;4909415;29;20978;-62
2021/04/03 07:32:35;;;;;;;22.90;4.40;;;8.00;99.90;;;;;;4916533;29;20248;-62
2021/04/03 07:35:21;;;;;;;21.50;4.10;;;8.00;99.90;;;;;;4931250;29;20244;-62
2021/04/03 07:37:51;;;;;;;15.37;4.50;;;8.10;99.90;;;;;;4903436;29;20677;-62
2021/04/03 07:40:38;;;;;;;21.67;4.37;;;8.10;99.90;;;;;;4926919;29;20204;-62
2021/04/03 07:43:36;;;;;;;25.07;5.10;;;8.20;99.90;;;;;;4907629;29;20257;-62
2021/04/03 07:46:16;;;;;;;19.37;4.60;;;8.30;99.90;;;;;;4902319;29;20577;-62
2021/04/03 07:48:53;;;;;;;23.30;4.97;;;8.20;99.90;;;;;;4924562;29;20316;-62
2021/04/03 07:51:42;;;;;;;20.10;4.40;;;8.20;99.90;;;;;;4918105;29;20200;-62
2021/04/03 07:54:26;;;;;;;18.43;4.53;;;8.20;99.90;;;;;;4912861;29;20200;-62
2021/04/03 07:56:56;;;;;;;23.53;4.67;;;8.40;99.90;;;;;;4931966;29;20400;-62
2021/04/03 08:00:00;;;;;;;20.43;4.03;;;8.40;99.90;;;;;;4917229;29;20288;-62
2021/04/03 08:02:30;;;;;;;24.57;4.43;;;8.40;99.90;;;;;;4911888;29;20193;-62
2021/04/03 08:04:57;;;;;;;21.00;5.17;;;8.50;99.90;;;;;;4925064;29;20257;-62
2021/04/03 08:07:25;;;;;;;17.80;4.47;;;8.70;99.90;;;;;;4910886;29;20237;-62
2021/04/03 08:09:54;;;;;;;18.90;4.23;;;8.80;99.90;;;;;;4909008;29;20205;-62
2021/04/03 08:12:26;;;;;;;29.63;4.83;;;8.80;99.90;;;;;;4921062;29;20303;-62
2021/04/03 08:14:57;;;;;;;17.80;4.50;;;8.70;99.90;;;;;;4915337;29;20689;-62
2021/04/03 08:17:25;;;;;;;22.20;4.57;;;8.80;99.90;;;;;;4916524;29;20592;-62
2021/04/03 08:19:59;;;;;;;16.60;4.27;;;8.80;99.90;;;;;;4907686;29;20286;-62
2021/04/03 08:22:28;;;;;;;17.03;4.20;;;8.70;99.90;;;;;;4912925;29;20202;-62
2021/04/03 08:25:01;;;;;;;21.23;3.63;;;8.70;99.90;;;;;;4914796;29;20201;-62
2021/04/03 08:27:37;;;;;;;21.47;4.00;;;8.70;99.90;;;;;;4916344;29;21597;-62
2021/04/03 08:33:06;;;;;;;16.00;3.90;;;8.60;99.90;;;;;;4905325;29;20245;-62
2021/04/03 08:35:35;;;;;;;20.00;3.97;;;8.70;99.90;;;;;;4924419;29;20205;-62
2021/04/03 08:38:17;;;;;;;13.83;4.23;;;8.80;99.90;;;;;;4912441;29;20241;-62
2021/04/03 08:40:49;;;;;;;14.37;4.33;;;8.80;99.90;;;;;;4914012;29;20248;-62
2021/04/03 08:43:18;;;;;;;16.70;3.97;;;8.70;99.90;;;;;;4903256;29;20852;-62
2021/04/03 08:45:45;;;;;;;19.50;4.17;;;8.50;99.90;;;;;;4914488;29;20273;-62
2021/04/03 08:48:13;;;;;;;17.33;3.70;;;8.60;99.90;;;;;;4912313;29;20281;-62
2021/04/03 08:50:43;;;;;;;23.37;4.40;;;8.60;99.90;;;;;;4917846;29;20240;-62
2021/04/03 08:53:10;;;;;;;15.13;3.50;;;8.90;99.90;;;;;;4913741;29;20245;-62
2021/04/03 08:55:38;;;;;;;19.00;3.93;;;8.80;99.90;;;;;;4909189;29;20197;-62
2021/04/03 08:58:07;;;;;;;16.87;3.80;;;8.90;99.90;;;;;;4912260;29;20217;-62
2021/04/03 09:00:35;;;;;;;18.03;3.87;;;9.00;99.90;;;;;;4909795;29;20229;-62
2021/04/03 09:03:04;;;;;;;16.30;3.70;;;9.10;99.90;;;;;;4916902;29;20257;-62
2021/04/03 09:05:32;;;;;;;11.83;3.60;;;9.10;99.90;;;;;;4915674;29;20207;-62
2021/04/03 09:07:59;;;;;;;17.70;3.73;;;9.40;99.90;;;;;;4915689;29;20214;-62
2021/04/03 09:10:27;;;;;;;20.53;4.07;;;9.50;99.90;;;;;;4917606;29;20229;-62
2021/04/03 09:12:54;;;;;;;20.83;4.20;;;9.40;99.90;;;;;;4918559;29;20236;-62
2021/04/03 09:15:30;;;;;;;21.10;4.57;;;9.40;99.90;;;;;;4935320;29;20205;-62
2021/04/03 09:17:58;;;;;;;18.70;4.13;;;9.20;99.90;;;;;;4921596;29;20664;-62
2021/04/03 09:20:28;;;;;;;19.73;4.27;;;9.20;99.90;;;;;;4924906;29;20206;-62
2021/04/03 09:23:03;;;;;;;13.73;4.27;;;9.20;99.90;;;;;;4914989;29;20253;-62
2021/04/03 09:25:31;;;;;;;21.03;5.03;;;9.10;99.90;;;;;;4920227;29;20196;-62
2021/04/03 09:28:01;;;;;;;21.90;5.87;;;9.40;99.90;;;;;;4929131;29;20260;-61
2021/04/03 09:30:35;;;;;;;23.23;5.07;;;9.40;99.90;;;;;;4915290;29;20336;-62
2021/04/03 09:33:17;;;;;;;21.93;4.50;;;9.40;99.90;;;;;;4913201;29;20225;-62
2021/04/03 09:35:48;;;;;;;17.83;4.47;;;9.30;99.90;;;;;;4919911;29;20613;-61
2021/04/03 09:38:27;;;;;;;26.33;4.70;;;9.30;99.90;;;;;;4914442;29;20190;-61
2021/04/03 09:40:54;;;;;;;19.93;4.80;;;9.40;99.90;;;;;;4914613;29;20252;-61
2021/04/03 09:43:39;;;;;;;21.30;4.37;;;9.50;99.90;;;;;;4918873;29;20264;-61
2021/04/03 09:46:09;;;;;;;16.97;4.70;;;9.60;99.90;;;;;;4905004;29;20233;-61
2021/04/03 09:48:37;;;;;;;25.60;4.60;;;9.70;99.90;;;;;;4916894;29;20715;-61
2021/04/03 09:51:04;;;;;;;20.10;4.70;;;9.80;99.90;;;;;;4914940;29;20751;-61
2021/04/03 09:53:32;;;;;;;19.80;4.10;;;9.70;99.90;;;;;;4918302;29;20620;-61
2021/04/03 09:56:00;;;;;;;25.60;4.40;;;9.60;99.90;;;;;;4913703;29;20193;-61
2021/04/03 09:58:27;;;;;;;17.80;4.93;;;9.70;99.90;;;;;;4927175;29;20604;-61
2021/04/03 10:00:54;;;;;;;22.40;5.00;;;9.90;99.90;;;;;;4924449;29;20280;-61
2021/04/03 10:03:23;;;;;;;21.40;4.70;;;10.00;99.90;;;;;;4919634;29;20193;-61
2021/04/03 10:05:50;;;;;;;17.83;4.27;;;10.00;99.90;;;;;;4918451;29;20669;-61
2021/04/03 10:08:18;;;;;;;18.43;4.70;;;10.20;99.90;;;;;;4914446;29;20240;-61
2021/04/03 10:10:45;;;;;;;21.13;5.00;;;10.20;99.90;;;;;;4905561;29;20254;-61
2021/04/03 10:13:13;;;;;;;18.77;4.43;;;10.20;99.90;;;;;;4905372;29;20224;-61
2021/04/03 10:15:41;;;;;;;22.30;5.10;;;10.30;99.90;;;;;;4905230;29;20198;-61
2021/04/03 10:18:08;;;;;;;25.87;4.77;;;10.40;99.90;;;;;;4914115;29;20221;-61
2021/04/03 10:20:37;;;;;;;17.80;4.40;;;10.40;99.90;;;;;;4920144;29;20821;-61
2021/04/03 10:23:04;;;;;;;17.13;4.83;;;10.10;99.90;;;;;;4912405;29;20240;-61
2021/04/03 10:25:32;;;;;;;16.03;4.00;;;10.00;99.90;;;;;;4914129;29;20213;-61
2021/04/03 10:27:59;;;;;;;18.30;4.80;;;10.30;99.90;;;;;;4913745;29;20280;-61
2021/04/03 10:30:27;;;;;;;24.63;4.93;;;10.50;99.90;;;;;;4909282;29;20389;-61
2021/04/03 10:32:54;;;;;;;16.17;4.53;;;10.90;99.90;;;;;;4916135;29;20296;-61
2021/04/03 10:35:22;;;;;;;21.33;4.80;;;11.00;99.90;;;;;;4909792;29;20205;-60
2021/04/03 10:37:50;;;;;;;22.57;5.63;;;11.30;99.90;;;;;;4904999;29;20206;-62
2021/04/03 10:40:18;;;;;;;14.00;4.63;;;11.10;99.90;;;;;;4913640;29;20295;-62
2021/04/03 10:42:47;;;;;;;27.03;6.03;;;11.00;99.90;;;;;;4914243;29;20285;-62
2021/04/03 10:45:15;;;;;;;20.93;5.87;;;11.20;99.90;;;;;;4914856;29;20197;-62
2021/04/03 10:47:42;;;;;;;22.67;5.53;;;11.70;99.90;;;;;;4912648;29;20205;-60
2021/04/03 10:50:11;;;;;;;17.50;5.10;;;12.30;99.90;;;;;;4911742;29;20244;-60
2021/04/03 10:52:38;;;;;;;17.53;4.97;;;12.50;99.90;;;;;;4910898;29;20271;-60
2021/04/03 10:55:08;;;;;;;22.43;5.30;;;12.70;99.90;;;;;;4917294;29;20605;-60
2021/04/03 10:57:36;;;;;;;17.07;5.30;;;13.30;99.90;;;;;;4917840;29;20201;-61
2021/04/03 11:00:05;;;;;;;15.33;4.73;;;13.90;99.90;;;;;;4917281;29;20676;-61
2021/04/03 11:02:32;;;;;;;17.00;4.70;;;14.40;99.90;;;;;;4911350;29;20292;-61
2021/04/03 11:05:00;;;;;;;18.30;5.27;;;14.30;99.90;;;;;;4908653;29;20202;-61
2021/04/03 11:07:27;;;;;;;14.27;4.90;;;14.10;99.90;;;;;;4905022;29;20752;-60
2021/04/03 11:09:55;;;;;;;16.37;4.30;;;14.90;99.90;;;;;;4903947;29;20293;-60
2021/04/03 11:12:23;;;;;;;12.87;4.70;;;15.20;99.90;;;;;;4907106;29;20202;-61
2021/04/03 11:14:50;;;;;;;13.27;5.00;;;16.10;99.90;;;;;;4905753;29;20204;-60
2021/04/03 11:17:18;;;;;;;13.30;4.50;;;16.40;99.90;;;;;;4903729;29;20194;-61
2021/04/03 11:19:45;;;;;;;13.43;4.33;;;17.40;99.90;;;;;;4914333;29;20220;-61
2021/04/03 11:22:12;;;;;;;15.67;4.80;;;17.50;99.90;;;;;;4922835;29;20686;-61
2021/04/03 11:24:39;;;;;;;13.67;4.50;;;16.90;99.90;;;;;;4917962;29;20205;-61
2021/04/03 11:27:07;;;;;;;14.80;4.70;;;16.10;99.90;;;;;;4913556;29;20680;-60
2021/04/03 11:29:46;;;;;;;11.80;4.90;;;15.00;99.90;;;;;;4915069;29;20251;-61
2021/04/03 11:32:13;;;;;;;9.47;4.47;;;15.30;99.90;;;;;;4910136;29;20254;-61
2021/04/03 11:34:40;;;;;;;14.60;4.80;;;15.30;99.90;;;;;;4913047;29;20303;-61
2021/04/03 11:37:08;;;;;;;10.77;4.30;;;15.70;99.90;;;;;;4925944;29;20193;-61
2021/04/03 11:39:36;;;;;;;8.83;3.50;;;16.50;99.90;;;;;;4909948;29;20315;-61
2021/04/03 11:42:04;;;;;;;18.07;4.43;;;17.00;99.90;;;;;;4909017;29;20194;-61
2021/04/03 11:44:31;;;;;;;16.13;4.07;;;16.90;99.90;;;;;;4909212;29;20288;-61
2021/04/03 11:46:59;;;;;;;10.33;4.37;;;17.00;99.90;;;;;;4911831;29;20240;-61
2021/04/03 11:49:27;;;;;;;15.90;4.53;;;17.10;99.90;;;;;;4916485;29;20209;-60
2021/04/03 11:51:54;;;;;;;11.03;4.07;;;16.20;99.90;;;;;;4912058;29;20224;-60
2021/04/03 11:54:22;;;;;;;12.13;4.17;;;15.70;99.90;;;;;;4912615;29;20288;-62
2021/04/03 11:56:49;;;;;;;15.13;4.47;;;15.30;99.90;;;;;;4918329;29;20236;-62
2021/04/03 11:59:16;;;;;;;12.83;4.50;;;14.60;99.90;;;;;;4913948;29;20236;-62
2021/04/03 12:01:44;;;;;;;16.27;4.77;;;14.00;99.90;;;;;;4918214;29;20193;-61
2021/04/03 12:04:12;;;;;;;17.77;4.67;;;12.90;99.90;;;;;;4910316;29;20614;-61
2021/04/03 12:06:39;;;;;;;14.07;4.60;;;13.00;99.90;;;;;;4911108;29;20253;-62
2021/04/03 12:09:09;;;;;;;13.13;4.40;;;14.00;99.90;;;;;;4904116;29;20209;-62
2021/04/03 12:11:36;;;;;;;18.70;4.77;;;15.60;99.90;;;;;;4908652;29;20212;-62
2021/04/03 12:14:03;;;;;;;9.33;4.10;;;16.20;99.90;;;;;;4912147;29;20769;-62
2021/04/03 12:16:33;;;;;;;17.97;4.50;;;15.20;99.90;;;;;;4910646;29;20198;-62
2021/04/03 12:19:00;;;;;;;15.07;4.70;;;14.50;99.90;;;;;;4911872;29;20217;-62
2021/04/03 12:21:29;;;;;;;13.70;4.67;;;14.60;99.90;;;;;;4915494;29;20201;-62
2021/04/03 12:23:57;;;;;;;16.87;4.70;;;15.10;99.90;;;;;;4911962;29;20292;-62
2021/04/03 12:26:24;;;;;;;16.13;5.00;;;14.50;99.90;;;;;;4912795;29;20303;-62
2021/04/03 12:28:51;;;;;;;16.80;5.00;;;14.10;99.90;;;;;;4909978;29;20258;-62
2021/04/03 12:31:18;;;;;;;18.20;4.70;;;14.00;99.90;;;;;;4915313;29;20253;-62
2021/04/03 12:33:46;;;;;;;14.13;4.30;;;13.90;99.90;;;;;;4910980;29;20203;-62
2021/04/03 12:36:13;;;;;;;10.70;4.17;;;14.80;99.90;;;;;;4904408;29;20208;-62
2021/04/03 12:38:41;;;;;;;11.30;4.50;;;15.60;99.90;;;;;;4912414;29;20198;-62
2021/04/03 12:41:08;;;;;;;14.33;4.77;;;15.60;99.90;;;;;;4914758;29;20296;-62
2021/04/03 12:43:36;;;;;;;12.50;4.23;;;15.20;99.90;;;;;;4911214;29;20741;-62
2021/04/03 12:46:04;;;;;;;15.70;5.00;;;15.10;99.90;;;;;;4910310;29;20288;-62
2021/04/03 12:48:32;;;;;;;17.93;4.80;;;15.70;99.90;;;;;;4908755;29;20214;-62
2021/04/03 12:51:02;;;;;;;15.37;4.37;;;16.30;99.90;;;;;;4912273;29;20570;-62
2021/04/03 12:53:30;;;;;;;12.10;4.70;;;16.20;99.90;;;;;;4912760;29;20224;-62
2021/04/03 12:55:58;;;;;;;13.47;4.87;;;15.80;99.90;;;;;;4912382;29;20201;-62
2021/04/03 12:58:26;;;;;;;14.07;4.70;;;15.90;99.90;;;;;;4912165;29;20257;-63
2021/04/03 13:00:53;;;;;;;15.10;4.53;;;16.40;99.90;;;;;;4915869;29;21350;-62